Time;durP1;ratioP1;P1;durP2;ratioP2;P2;SDS_P1;SDS_P2;PMS_P1;PMS_P2;Temp;Humidity;BMP_temperature;BMP_pressure;BME280_temperature;BME280_humidity;BME280_pressure;Samples;Min_cycle;Max_cycle;Signal;HPM_P1;HPM_P2
2022/12/18 00:01:28;;;;;;;108.53;40.45;;;-5.70;99.90;;;;;;5099115;28;20424;-73
2022/12/18 00:03:54;;;;;;;80.88;32.72;;;-5.70;99.90;;;;;;5114099;28;20084;-73
2022/12/18 00:06:21;;;;;;;94.22;38.10;;;-5.60;99.90;;;;;;5113881;28;20439;-75
2022/12/18 00:08:47;;;;;;;62.30;22.40;;;-5.60;99.90;;;;;;5112456;28;20027;-74
2022/12/18 00:11:16;;;;;;;48.17;20.30;;;-5.60;99.90;;;;;;5112377;28;20085;-75
2022/12/18 00:13:42;;;;;;;87.70;34.75;;;-5.60;99.90;;;;;;5113602;28;20019;-73
2022/12/18 00:16:10;;;;;;;77.70;30.05;;;-5.60;99.90;;;;;;5114062;28;20419;-73
2022/12/18 00:18:36;;;;;;;75.28;27.63;;;-5.60;99.90;;;;;;5102700;28;20016;-76
2022/12/18 00:21:05;;;;;;;71.18;28.13;;;-5.60;99.90;;;;;;5091872;28;20052;-75
2022/12/18 00:23:31;;;;;;;76.40;30.55;;;-5.60;99.90;;;;;;5092058;28;20016;-73
2022/12/18 00:26:01;;;;;;;43.28;17.77;;;-5.60;99.90;;;;;;5093413;28;20020;-73
2022/12/18 00:28:27;;;;;;;58.25;22.52;;;-5.60;99.90;;;;;;5097394;28;20035;-74
2022/12/18 00:31:11;;;;;;;68.38;27.63;;;-5.60;99.90;;;;;;5097203;28;20460;-75
2022/12/18 00:33:37;;;;;;;50.38;21.17;;;-5.60;99.90;;;;;;5097500;28;20550;-75
2022/12/18 00:36:13;;;;;;;50.70;23.20;;;-5.60;99.90;;;;;;5096154;28;20473;-76
2022/12/18 00:38:39;;;;;;;96.43;36.47;;;-5.60;99.90;;;;;;5097303;28;20024;-76
2022/12/18 00:41:06;;;;;;;75.28;31.60;;;-5.60;99.90;;;;;;5097347;28;20036;-76
2022/12/18 00:43:32;;;;;;;87.00;33.60;;;-5.60;99.90;;;;;;5097272;28;20031;-73
2022/12/18 00:45:57;;;;;;;85.88;31.45;;;-5.50;99.90;;;;;;5097302;28;20024;-75
2022/12/18 00:48:23;;;;;;;43.65;21.52;;;-5.50;99.90;;;;;;5097127;28;20032;-76
2022/12/18 00:50:49;;;;;;;65.72;28.08;;;-5.50;99.90;;;;;;5096958;28;20499;-72
2022/12/18 00:53:15;;;;;;;72.57;31.58;;;-5.40;99.90;;;;;;5097035;28;20026;-76
2022/12/18 00:55:42;;;;;;;86.70;35.47;;;-5.40;99.90;;;;;;5095823;28;20119;-75
2022/12/18 00:58:09;;;;;;;105.72;37.63;;;-5.40;99.90;;;;;;5095675;28;20035;-73
2022/12/18 01:00:35;;;;;;;94.35;36.53;;;-5.40;99.90;;;;;;5096922;28;20039;-75
2022/12/18 01:03:01;;;;;;;48.60;19.30;;;-5.40;99.90;;;;;;5115484;28;20073;-74
2022/12/18 01:05:27;;;;;;;133.38;47.70;;;-5.40;99.90;;;;;;5117213;28;20016;-75
2022/12/18 01:07:53;;;;;;;75.40;26.27;;;-5.40;99.90;;;;;;5117348;28;20035;-73
2022/12/18 01:10:19;;;;;;;85.20;32.30;;;-5.40;99.90;;;;;;5116891;28;20027;-73
2022/12/18 01:12:44;;;;;;;65.00;25.23;;;-5.40;99.90;;;;;;5117146;28;20038;-73
2022/12/18 01:15:12;;;;;;;96.15;35.65;;;-5.40;99.90;;;;;;5115776;28;20019;-75
2022/12/18 01:17:38;;;;;;;50.60;22.40;;;-5.40;99.90;;;;;;5112540;28;20012;-76
2022/12/18 01:20:04;;;;;;;87.43;33.17;;;-5.40;99.90;;;;;;5096195;28;20048;-75
2022/12/18 01:22:30;;;;;;;61.70;28.25;;;-5.30;99.90;;;;;;5096586;28;20020;-73
2022/12/18 01:24:55;;;;;;;99.28;38.72;;;-5.30;99.90;;;;;;5096419;28;20024;-75
2022/12/18 01:27:21;;;;;;;87.30;33.10;;;-5.30;99.90;;;;;;5095191;28;20511;-73
2022/12/18 01:29:46;;;;;;;141.18;48.53;;;-5.30;99.90;;;;;;5094969;28;20049;-73
2022/12/18 01:32:12;;;;;;;123.70;47.35;;;-5.30;99.90;;;;;;5096465;28;20028;-75
2022/12/18 01:34:38;;;;;;;69.15;28.67;;;-5.30;99.90;;;;;;5094973;28;20034;-75
2022/12/18 01:37:05;;;;;;;57.33;24.25;;;-5.30;99.90;;;;;;5095805;28;20048;-76
2022/12/18 01:39:31;;;;;;;44.08;18.65;;;-5.30;99.90;;;;;;5094622;28;20557;-73
2022/12/18 01:42:01;;;;;;;35.08;18.55;;;-5.30;99.90;;;;;;5094798;28;20085;-73
2022/12/18 01:45:05;;;;;;;47.13;19.15;;;-5.30;99.90;;;;;;5096024;28;20028;-73
2022/12/18 01:47:40;;;;;;;80.30;29.73;;;-5.20;99.90;;;;;;5091315;28;20469;-73
2022/12/18 01:50:33;;;;;;;142.63;50.38;;;-5.20;99.90;;;;;;5094610;28;20081;-76
2022/12/18 01:53:04;;;;;;;97.93;35.95;;;-5.20;99.90;;;;;;5094850;28;20103;-73
2022/12/18 01:55:34;;;;;;;175.15;57.30;;;-5.10;99.90;;;;;;5095929;28;20024;-74
2022/12/18 01:58:01;;;;;;;94.00;34.67;;;-5.10;99.90;;;;;;5095871;28;20052;-75
2022/12/18 02:00:27;;;;;;;47.50;20.17;;;-5.10;99.90;;;;;;5095859;28;20028;-75
2022/12/18 02:02:53;;;;;;;49.97;23.80;;;-5.10;99.90;;;;;;5114741;28;20020;-75
2022/12/18 02:05:43;;;;;;;79.97;36.72;;;-5.20;99.90;;;;;;5116040;28;20042;-73
2022/12/18 02:08:17;;;;;;;81.47;36.38;;;-5.20;99.90;;;;;;5115149;28;20040;-73
2022/12/18 02:10:45;;;;;;;62.65;27.25;;;-5.20;99.90;;;;;;5114516;28;20042;-75
2022/12/18 02:13:36;;;;;;;61.80;27.73;;;-5.20;99.90;;;;;;5114606;28;20020;-75
2022/12/18 02:16:45;;;;;;;47.13;20.95;;;-5.10;99.90;;;;;;5114498;27;20042;-76
2022/12/18 02:19:32;;;;;;;52.80;23.65;;;-5.10;99.90;;;;;;5093134;28;20556;-73
2022/12/18 02:22:05;;;;;;;87.30;36.35;;;-5.10;99.90;;;;;;5086287;28;20108;-73
2022/12/18 02:25:10;;;;;;;133.35;50.97;;;-5.10;99.90;;;;;;5088493;28;20036;-75
2022/12/18 02:27:38;;;;;;;62.50;27.30;;;-5.10;99.90;;;;;;5091630;28;20109;-74
2022/12/18 02:30:06;;;;;;;91.22;34.63;;;-5.10;99.90;;;;;;5095038;28;20032;-73
2022/12/18 02:32:37;;;;;;;63.40;27.13;;;-5.10;99.90;;;;;;5095149;28;20031;-73
2022/12/18 02:35:05;;;;;;;55.65;24.10;;;-5.10;99.90;;;;;;5094711;28;20085;-73
2022/12/18 02:37:32;;;;;;;45.90;18.45;;;-5.00;99.90;;;;;;5094998;28;20023;-73
2022/12/18 02:39:59;;;;;;;58.53;27.52;;;-5.00;99.90;;;;;;5094890;28;20016;-73
2022/12/18 02:42:26;;;;;;;49.92;23.38;;;-5.00;99.90;;;;;;5093686;28;20029;-73
2022/12/18 02:44:51;;;;;;;50.85;22.20;;;-5.00;99.90;;;;;;5094941;28;20035;-73
2022/12/18 02:47:21;;;;;;;35.45;18.17;;;-5.10;99.90;;;;;;5093627;28;20025;-75
2022/12/18 02:50:26;;;;;;;33.50;18.30;;;-5.10;99.90;;;;;;5093722;28;20020;-73
2022/12/18 02:53:10;;;;;;;55.70;25.98;;;-5.20;99.90;;;;;;5094349;28;20397;-75
2022/12/18 02:55:39;;;;;;;46.65;22.70;;;-5.20;99.90;;;;;;5093136;28;20404;-76
2022/12/18 02:58:34;;;;;;;39.95;19.60;;;-5.20;99.90;;;;;;5094772;28;20047;-73
2022/12/18 03:01:15;;;;;;;53.58;22.83;;;-5.20;99.90;;;;;;5093514;28;20026;-74
2022/12/18 03:03:50;;;;;;;57.78;25.63;;;-5.20;99.90;;;;;;5114080;28;20456;-76
2022/12/18 03:06:46;;;;;;;55.03;24.80;;;-5.20;99.90;;;;;;5113640;28;20069;-73
2022/12/18 03:09:19;;;;;;;62.85;25.27;;;-5.10;99.90;;;;;;5115023;28;20461;-73
2022/12/18 03:14:39;;;;;;;43.40;20.63;;;-5.10;99.90;;;;;;5114769;28;20034;-75
2022/12/18 03:17:09;;;;;;;55.95;25.42;;;-5.20;99.90;;;;;;5114438;28;20024;-73
2022/12/18 03:19:35;;;;;;;54.30;25.40;;;-5.10;99.90;;;;;;5094325;28;20067;-75
2022/12/18 03:22:04;;;;;;;53.15;25.45;;;-5.10;99.90;;;;;;5094474;28;20481;-73
2022/12/18 03:24:31;;;;;;;54.78;23.42;;;-5.10;99.90;;;;;;5093462;28;20504;-73
2022/12/18 03:27:02;;;;;;;51.15;23.05;;;-5.20;99.90;;;;;;5094057;28;20089;-75
2022/12/18 03:29:35;;;;;;;50.65;23.15;;;-5.10;99.90;;;;;;5094115;28;20091;-76
2022/12/18 03:32:12;;;;;;;54.92;27.15;;;-5.20;99.90;;;;;;5094180;28;20114;-73
2022/12/18 03:34:40;;;;;;;48.78;24.30;;;-5.10;99.90;;;;;;5094182;28;20020;-73
2022/12/18 03:37:06;;;;;;;47.45;22.23;;;-5.10;99.90;;;;;;5093920;28;20401;-76
2022/12/18 03:39:33;;;;;;;58.63;24.63;;;-5.20;99.90;;;;;;5093932;28;20026;-75
2022/12/18 03:42:10;;;;;;;52.35;23.23;;;-5.20;99.90;;;;;;5093948;28;20477;-75
2022/12/18 03:45:05;;;;;;;45.28;22.52;;;-5.20;99.90;;;;;;5093781;28;20397;-73
2022/12/18 03:47:35;;;;;;;48.10;21.42;;;-5.20;99.90;;;;;;5093897;28;20048;-75
2022/12/18 03:50:09;;;;;;;55.70;21.67;;;-5.20;99.90;;;;;;5092353;28;20048;-73
2022/12/18 03:52:42;;;;;;;59.67;23.50;;;-5.20;99.90;;;;;;5093699;28;20028;-73
2022/12/18 03:55:09;;;;;;;;;;;-5.20;99.90;;;;;;5092937;28;20020;-73
2022/12/18 03:57:35;;;;;;;67.22;23.80;;;-5.20;99.90;;;;;;5092408;28;20002;-73
2022/12/18 04:00:08;;;;;;;63.13;23.13;;;-5.20;99.90;;;;;;5092356;28;20046;-73
2022/12/18 04:02:38;;;;;;;50.25;24.38;;;-5.20;99.90;;;;;;5110470;28;20540;-73
2022/12/18 04:05:06;;;;;;;58.25;23.95;;;-5.20;99.90;;;;;;5113896;28;20020;-76
2022/12/18 04:07:32;;;;;;;58.28;25.27;;;-5.10;99.90;;;;;;5112523;28;20518;-73
2022/12/18 04:10:00;;;;;;;57.90;24.67;;;-5.10;99.90;;;;;;5113964;28;20483;-75
2022/12/18 04:12:26;;;;;;;71.35;30.40;;;-5.10;99.90;;;;;;5096304;28;20020;-76
2022/12/18 04:14:51;;;;;;;76.03;30.55;;;-5.10;99.90;;;;;;5093469;28;20032;-76
2022/12/18 04:17:17;;;;;;;70.50;29.08;;;-5.10;99.90;;;;;;5092078;28;20427;-73
2022/12/18 04:19:43;;;;;;;64.75;28.40;;;-5.10;99.90;;;;;;5093230;28;20059;-76
2022/12/18 04:22:10;;;;;;;142.63;57.50;;;-5.20;99.90;;;;;;5093767;28;20048;-73
2022/12/18 04:24:36;;;;;;;116.88;44.20;;;-5.10;99.90;;;;;;5093406;28;20024;-73
2022/12/18 04:27:02;;;;;;;139.68;52.08;;;-5.10;99.90;;;;;;5092079;28;20120;-75
2022/12/18 04:29:28;;;;;;;157.98;53.58;;;-5.10;99.90;;;;;;5092042;28;20066;-76
2022/12/18 04:31:54;;;;;;;266.35;85.78;;;-5.10;99.90;;;;;;5093193;28;20477;-73
2022/12/18 04:34:20;;;;;;;95.22;38.35;;;-5.10;99.90;;;;;;5093328;28;20043;-76
2022/12/18 04:36:46;;;;;;;200.52;71.60;;;-5.10;99.90;;;;;;5093227;28;20069;-76
2022/12/18 04:39:11;;;;;;;94.57;34.17;;;-5.20;99.90;;;;;;5093221;28;20028;-73
2022/12/18 04:41:37;;;;;;;347.80;107.28;;;-5.20;99.90;;;;;;5093256;28;20381;-73
2022/12/18 04:44:03;;;;;;;421.98;134.23;;;-5.10;99.90;;;;;;5093078;28;20035;-76
2022/12/18 04:46:28;;;;;;;570.13;183.93;;;-5.20;99.90;;;;;;5092042;28;20020;-76
2022/12/18 04:48:54;;;;;;;233.25;70.78;;;-5.10;99.90;;;;;;5093203;28;20099;-76
2022/12/18 04:51:20;;;;;;;179.75;66.57;;;-5.20;99.90;;;;;;5091671;28;20420;-75
2022/12/18 04:53:45;;;;;;;203.07;68.88;;;-5.20;99.90;;;;;;5093123;28;20475;-73
2022/12/18 04:56:13;;;;;;;383.60;121.47;;;-5.20;99.90;;;;;;5092995;28;20027;-76
2022/12/18 04:58:40;;;;;;;317.92;98.57;;;-5.20;99.90;;;;;;5091741;28;20021;-76
2022/12/18 05:01:07;;;;;;;231.65;75.00;;;-5.20;99.90;;;;;;5097650;28;20012;-76
2022/12/18 05:03:33;;;;;;;328.33;97.07;;;-5.20;99.90;;;;;;5111930;28;20034;-75
2022/12/18 05:05:59;;;;;;;318.02;100.88;;;-5.20;99.90;;;;;;5113366;28;20038;-75
2022/12/18 05:08:24;;;;;;;307.25;94.60;;;-5.20;99.90;;;;;;5112089;28;20103;-75
2022/12/18 05:10:59;;;;;;;218.15;67.78;;;-5.20;99.90;;;;;;5113405;28;20515;-73
2022/12/18 05:13:24;;;;;;;255.73;79.50;;;-5.10;99.90;;;;;;5115075;28;20020;-73
2022/12/18 05:15:53;;;;;;;373.67;122.47;;;-5.20;99.90;;;;;;5117168;28;20032;-75
2022/12/18 05:18:19;;;;;;;377.40;122.07;;;-5.20;99.90;;;;;;5106823;28;20374;-76
2022/12/18 05:20:44;;;;;;;242.80;80.85;;;-5.20;99.90;;;;;;5096255;28;20070;-73
2022/12/18 05:23:10;;;;;;;188.30;58.25;;;-5.20;99.90;;;;;;5096448;28;20455;-76
2022/12/18 05:25:35;;;;;;;210.27;69.75;;;-5.20;99.90;;;;;;5096566;28;20389;-75
2022/12/18 05:28:01;;;;;;;226.27;75.65;;;-5.20;99.90;;;;;;5095142;28;20040;-76
2022/12/18 05:30:27;;;;;;;190.30;67.93;;;-5.20;99.90;;;;;;5095106;28;20035;-74
2022/12/18 05:32:53;;;;;;;222.02;67.93;;;-5.20;99.90;;;;;;5096257;28;20529;-73
2022/12/18 05:35:19;;;;;;;116.22;42.30;;;-5.20;99.90;;;;;;5096342;28;20031;-73
2022/12/18 05:37:45;;;;;;;80.85;30.58;;;-5.20;99.90;;;;;;5094835;28;20149;-73
2022/12/18 05:40:11;;;;;;;81.03;35.55;;;-5.20;99.90;;;;;;5095240;28;20385;-73
2022/12/18 05:42:37;;;;;;;64.70;29.23;;;-5.20;99.90;;;;;;5096001;28;20530;-73
2022/12/18 05:45:03;;;;;;;139.73;48.13;;;-5.20;99.90;;;;;;5095967;28;20074;-75
2022/12/18 05:47:28;;;;;;;85.57;33.17;;;-5.20;99.90;;;;;;5096171;28;20115;-73
2022/12/18 05:49:54;;;;;;;82.50;31.63;;;-5.20;99.90;;;;;;5095817;28;20484;-75
2022/12/18 05:52:20;;;;;;;101.13;37.92;;;-5.30;99.90;;;;;;5094779;28;20016;-75
2022/12/18 05:54:46;;;;;;;238.55;85.75;;;-5.30;99.90;;;;;;5095875;28;20078;-73
2022/12/18 05:57:11;;;;;;;318.77;102.85;;;-5.30;99.90;;;;;;5094734;28;20050;-75
2022/12/18 05:59:37;;;;;;;158.95;53.97;;;-5.30;99.90;;;;;;5095771;28;20031;-73
2022/12/18 06:02:02;;;;;;;107.13;36.50;;;-5.30;99.90;;;;;;5109016;28;20440;-76
2022/12/18 06:04:28;;;;;;;93.85;33.05;;;-5.30;99.90;;;;;;5114741;28;20063;-75
2022/12/18 06:06:54;;;;;;;74.82;31.75;;;-5.30;99.90;;;;;;5114910;28;20499;-73
2022/12/18 06:09:19;;;;;;;68.95;28.58;;;-5.30;99.90;;;;;;5106830;28;20021;-76
2022/12/18 06:11:45;;;;;;;75.07;26.17;;;-5.30;99.90;;;;;;5094295;28;20059;-76
2022/12/18 06:14:11;;;;;;;73.80;30.50;;;-5.30;99.90;;;;;;5095446;28;20035;-76
2022/12/18 06:16:36;;;;;;;62.33;25.95;;;-5.30;99.90;;;;;;5095555;28;20032;-75
2022/12/18 06:19:05;;;;;;;73.15;27.13;;;-5.30;99.90;;;;;;5095154;28;20025;-75
2022/12/18 06:21:31;;;;;;;68.63;29.02;;;-5.30;99.90;;;;;;5094272;28;20035;-73
2022/12/18 06:23:57;;;;;;;61.60;28.00;;;-5.30;99.90;;;;;;5093762;28;20073;-75
2022/12/18 06:26:23;;;;;;;65.18;30.27;;;-5.30;99.90;;;;;;5095297;28;20020;-73
2022/12/18 06:28:49;;;;;;;61.35;24.98;;;-5.30;99.90;;;;;;5093817;28;20024;-73
2022/12/18 06:31:14;;;;;;;62.63;25.92;;;-5.30;99.90;;;;;;5093763;28;20055;-76
2022/12/18 06:33:40;;;;;;;74.97;31.05;;;-5.30;99.90;;;;;;5095215;28;20357;-73
2022/12/18 06:36:09;;;;;;;85.45;35.22;;;-5.20;99.90;;;;;;5095212;28;20384;-76
2022/12/18 06:38:36;;;;;;;78.55;30.85;;;-5.20;99.90;;;;;;5094987;28;20035;-75
2022/12/18 06:41:09;;;;;;;62.45;27.20;;;-5.20;99.90;;;;;;5095108;28;20046;-75
2022/12/18 06:43:34;;;;;;;53.00;21.30;;;-5.20;99.90;;;;;;5095243;28;20024;-75
2022/12/18 06:46:00;;;;;;;67.93;29.90;;;-5.20;99.90;;;;;;5093653;28;20026;-73
2022/12/18 06:48:26;;;;;;;67.65;30.52;;;-5.20;99.90;;;;;;5095004;28;20020;-75
2022/12/18 06:50:52;;;;;;;72.82;30.95;;;-5.10;99.90;;;;;;5093996;28;20119;-76
2022/12/18 06:53:17;;;;;;;100.57;40.08;;;-5.10;99.90;;;;;;5094164;28;20023;-76
2022/12/18 06:55:43;;;;;;;100.22;40.13;;;-5.10;99.90;;;;;;5093949;28;20403;-76
2022/12/18 06:58:09;;;;;;;97.03;34.15;;;-5.10;99.90;;;;;;5094207;28;20107;-76
2022/12/18 07:00:34;;;;;;;134.02;48.40;;;-5.00;99.90;;;;;;5093624;28;20051;-76
2022/12/18 07:03:00;;;;;;;149.75;56.70;;;-5.00;99.90;;;;;;5113621;28;20548;-73
2022/12/18 07:05:25;;;;;;;142.02;52.90;;;-5.00;99.90;;;;;;5114678;28;20032;-76
2022/12/18 07:07:51;;;;;;;217.20;81.47;;;-5.00;99.90;;;;;;5113488;28;20059;-76
2022/12/18 07:10:17;;;;;;;150.05;63.67;;;-5.00;99.90;;;;;;5114594;28;20080;-73
2022/12/18 07:12:42;;;;;;;125.35;48.92;;;-5.00;99.90;;;;;;5114807;28;20398;-73
2022/12/18 07:15:08;;;;;;;125.18;48.47;;;-5.00;99.90;;;;;;5109032;28;20529;-76
2022/12/18 07:17:34;;;;;;;103.10;40.50;;;-5.00;99.90;;;;;;5092864;28;20058;-76
2022/12/18 07:20:00;;;;;;;122.75;50.28;;;-5.00;99.90;;;;;;5092244;28;20052;-72
2022/12/18 07:22:26;;;;;;;129.25;51.85;;;-5.00;99.90;;;;;;5092686;28;20064;-75
2022/12/18 07:24:52;;;;;;;133.73;52.55;;;-4.90;99.90;;;;;;5092668;28;20036;-73
2022/12/18 07:27:17;;;;;;;154.85;60.10;;;-4.90;99.90;;;;;;5093943;28;20051;-73
2022/12/18 07:29:43;;;;;;;100.03;37.83;;;-4.80;99.90;;;;;;5093957;28;20057;-73
2022/12/18 07:32:08;;;;;;;93.28;39.28;;;-4.80;99.90;;;;;;5094128;28;20027;-76
2022/12/18 07:34:34;;;;;;;91.35;36.58;;;-4.80;99.90;;;;;;5092661;28;20028;-73
2022/12/18 07:37:00;;;;;;;103.13;43.72;;;-4.70;99.90;;;;;;5092297;28;20023;-73
2022/12/18 07:39:25;;;;;;;102.28;45.22;;;-4.60;99.90;;;;;;5093530;28;20138;-76
2022/12/18 07:44:36;;;;;;;194.38;76.55;;;-4.60;99.90;;;;;;5093700;28;20081;-73
2022/12/18 07:47:01;;;;;;;99.93;42.42;;;-4.60;99.90;;;;;;5092160;28;20127;-73
2022/12/18 07:49:27;;;;;;;89.22;35.08;;;-4.60;99.90;;;;;;5092956;28;20103;-73
2022/12/18 07:51:55;;;;;;;100.70;43.90;;;-4.60;99.90;;;;;;5093503;28;20145;-73
2022/12/18 07:54:22;;;;;;;154.98;65.70;;;-4.60;99.90;;;;;;5093333;28;20512;-73
2022/12/18 07:56:47;;;;;;;182.98;81.43;;;-4.50;99.90;;;;;;5093204;28;20066;-73
2022/12/18 07:59:13;;;;;;;142.35;62.08;;;-4.50;99.90;;;;;;5093228;28;20024;-72
2022/12/18 08:01:38;;;;;;;110.03;42.88;;;-4.40;99.90;;;;;;5103631;28;20027;-73
2022/12/18 08:04:04;;;;;;;80.47;33.22;;;-4.40;99.90;;;;;;5102950;28;20024;-77
2022/12/18 08:06:30;;;;;;;88.35;37.65;;;-4.30;99.90;;;;;;5092061;28;20027;-73
2022/12/18 08:08:56;;;;;;;101.53;43.08;;;-4.30;99.90;;;;;;5093086;28;20027;-76
2022/12/18 08:11:23;;;;;;;101.93;49.35;;;-4.20;99.90;;;;;;5092883;28;20515;-76
2022/12/18 08:13:49;;;;;;;115.78;49.67;;;-4.20;99.90;;;;;;5092053;28;20073;-77
2022/12/18 08:16:15;;;;;;;141.65;58.72;;;-4.20;99.90;;;;;;5092324;28;20024;-77
2022/12/18 08:18:40;;;;;;;130.98;56.17;;;-4.10;99.90;;;;;;5093033;28;20035;-73
2022/12/18 08:21:34;;;;;;;77.03;30.63;;;-3.90;99.90;;;;;;5093032;28;20193;-76
2022/12/18 08:24:01;;;;;;;64.97;26.13;;;-3.80;99.90;;;;;;5091542;28;20036;-77
2022/12/18 08:26:29;;;;;;;66.00;30.08;;;-3.80;99.90;;;;;;5093081;28;20021;-73
2022/12/18 08:28:56;;;;;;;60.60;27.50;;;-3.80;99.90;;;;;;5093192;28;20016;-75
2022/12/18 08:31:22;;;;;;;78.25;32.53;;;-3.80;99.90;;;;;;5092679;28;20044;-76
2022/12/18 08:33:52;;;;;;;109.15;38.90;;;-3.80;99.90;;;;;;5091862;28;20024;-73
2022/12/18 08:36:18;;;;;;;51.83;22.42;;;-3.70;99.90;;;;;;5092844;28;20020;-77
2022/12/18 08:38:44;;;;;;;56.00;26.00;;;-3.70;99.90;;;;;;5091440;28;20016;-73
2022/12/18 08:41:13;;;;;;;55.30;21.58;;;-3.70;99.90;;;;;;5079026;28;20390;-73
2022/12/18 08:46:25;;;;;;;50.85;21.73;;;-3.70;99.90;;;;;;5072961;28;20397;-73
2022/12/18 08:48:51;;;;;;;49.65;21.85;;;-3.70;99.90;;;;;;5076584;28;20052;-74
2022/12/18 08:51:17;;;;;;;56.35;24.52;;;-3.50;99.90;;;;;;5074978;28;20489;-74
2022/12/18 08:53:44;;;;;;;54.90;21.88;;;-3.50;99.90;;;;;;5076545;28;20017;-76
2022/12/18 08:56:10;;;;;;;50.83;21.08;;;-3.50;99.90;;;;;;5075224;28;20470;-76
2022/12/18 08:58:36;;;;;;;90.38;40.70;;;-3.40;99.90;;;;;;5078400;28;20025;-73
2022/12/18 09:01:04;;;;;;;71.80;32.13;;;-3.50;99.90;;;;;;5111365;28;20424;-76
2022/12/18 09:03:29;;;;;;;71.28;31.92;;;-3.40;99.90;;;;;;5096757;28;20056;-79
2022/12/18 09:05:55;;;;;;;69.60;28.30;;;-3.30;99.90;;;;;;5095152;28;20459;-79
2022/12/18 09:08:21;;;;;;;46.10;22.45;;;-3.10;99.90;;;;;;5096459;28;20024;-79
2022/12/18 09:10:48;;;;;;;50.08;22.17;;;-2.90;99.90;;;;;;5094895;28;20071;-77
2022/12/18 09:13:15;;;;;;;53.75;21.95;;;-2.70;99.90;;;;;;5096336;28;20051;-75
2022/12/18 09:15:48;;;;;;;108.72;38.38;;;-2.60;99.90;;;;;;5096290;28;20025;-75
2022/12/18 09:18:15;;;;;;;153.02;50.83;;;-2.50;96.80;;;;;;5094998;28;20073;-76
2022/12/18 09:20:41;;;;;;;97.25;36.88;;;-2.60;92.40;;;;;;5094905;28;20048;-76
2022/12/18 09:23:07;;;;;;;75.20;27.63;;;-2.70;91.00;;;;;;5094837;28;20035;-76
2022/12/18 09:25:35;;;;;;;64.97;24.85;;;-2.60;90.30;;;;;;5094877;28;20053;-76
2022/12/18 09:28:05;;;;;;;69.13;27.23;;;-2.60;89.20;;;;;;5094617;28;20387;-75
2022/12/18 09:30:33;;;;;;;66.65;28.67;;;-2.50;89.00;;;;;;5095798;28;20155;-76
2022/12/18 09:32:59;;;;;;;58.00;23.70;;;-2.40;88.20;;;;;;5094653;28;20020;-76
2022/12/18 09:35:25;;;;;;;41.08;17.85;;;-2.50;86.70;;;;;;5096004;28;20108;-80
2022/12/18 09:37:50;;;;;;;46.20;20.27;;;-2.60;86.30;;;;;;5095977;28;20055;-76
2022/12/18 09:40:55;;;;;;;42.63;18.77;;;-2.60;86.00;;;;;;5027826;28;20041;-75
2022/12/18 09:43:40;;;;;;;38.22;19.05;;;-2.70;86.20;;;;;;5055022;28;20025;-76
2022/12/18 09:46:10;;;;;;;49.22;22.70;;;-2.80;86.40;;;;;;5054734;28;20021;-79
2022/12/18 09:48:41;;;;;;;40.80;19.17;;;-2.80;86.50;;;;;;5054384;28;20028;-79
2022/12/18 09:51:24;;;;;;;49.58;20.88;;;-2.80;85.80;;;;;;5055527;28;20037;-80
2022/12/18 09:54:01;;;;;;;44.72;22.73;;;-2.70;85.70;;;;;;5055578;28;20567;-80
2022/12/18 09:56:31;;;;;;;72.43;27.27;;;-2.60;85.20;;;;;;5049933;28;20029;-80
2022/12/18 09:59:01;;;;;;;56.20;22.77;;;-2.50;85.00;;;;;;4983285;28;20038;-80
2022/12/18 10:01:29;;;;;;;45.97;21.30;;;-2.50;84.40;;;;;;5044601;28;20078;-81
2022/12/18 10:03:55;;;;;;;49.95;22.27;;;-2.40;84.30;;;;;;5052249;28;20029;-80
2022/12/18 10:06:38;;;;;;;53.22;21.75;;;-2.20;84.70;;;;;;5053060;28;20017;-75
2022/12/18 10:09:06;;;;;;;46.42;20.05;;;-2.30;84.30;;;;;;5053883;28;20021;-80
2022/12/18 10:11:51;;;;;;;48.85;21.92;;;-2.20;85.70;;;;;;5044373;28;20037;-79
2022/12/18 10:14:46;;;;;;;223.20;68.82;;;-2.20;85.30;;;;;;5033942;28;20025;-75
2022/12/18 10:17:24;;;;;;;74.28;26.48;;;-2.40;84.60;;;;;;5043096;28;20056;-76
2022/12/18 10:19:57;;;;;;;63.03;22.90;;;-2.50;85.20;;;;;;5053671;28;20056;-75
2022/12/18 10:22:38;;;;;;;48.97;22.75;;;-2.50;85.60;;;;;;5053234;28;20078;-76
2022/12/18 10:25:25;;;;;;;50.83;22.55;;;-2.50;86.20;;;;;;5053591;28;20389;-74
2022/12/18 10:27:59;;;;;;;57.85;26.02;;;-2.60;86.60;;;;;;5054073;28;20033;-74
2022/12/18 10:30:27;;;;;;;185.23;69.72;;;-2.60;88.00;;;;;;5053253;28;20036;-74
2022/12/18 10:32:54;;;;;;;207.73;76.63;;;-2.80;88.20;;;;;;5054582;28;20032;-73
2022/12/18 10:35:21;;;;;;;55.35;23.70;;;-2.80;89.30;;;;;;5054021;28;20021;-74
2022/12/18 10:38:05;;;;;;;119.25;44.03;;;-3.00;89.90;;;;;;5050787;28;20025;-73
2022/12/18 10:40:31;;;;;;;424.15;170.55;;;-3.10;91.50;;;;;;5053129;28;20051;-74
2022/12/18 10:43:13;;;;;;;156.77;66.82;;;-3.20;92.30;;;;;;5053123;28;20029;-74
2022/12/18 10:45:39;;;;;;;55.35;25.17;;;-3.20;93.50;;;;;;5053165;28;20033;-76
2022/12/18 10:48:17;;;;;;;47.40;22.35;;;-3.20;94.30;;;;;;5052827;28;20063;-74
2022/12/18 10:50:48;;;;;;;59.83;27.40;;;-3.00;96.20;;;;;;5054130;28;20073;-73
2022/12/18 10:53:28;;;;;;;47.75;21.23;;;-3.00;96.20;;;;;;5054308;28;20017;-77
2022/12/18 10:55:57;;;;;;;44.20;23.65;;;-3.00;97.00;;;;;;5052546;28;20028;-79
2022/12/18 10:58:33;;;;;;;70.57;27.13;;;-2.90;99.90;;;;;;5053378;28;20060;-79
2022/12/18 11:01:17;;;;;;;253.85;84.00;;;-2.80;99.90;;;;;;5053467;28;20028;-79
2022/12/18 11:04:08;;;;;;;151.30;57.13;;;-2.70;97.40;;;;;;5053553;28;20028;-82
2022/12/18 11:06:33;;;;;;;59.72;23.65;;;-2.50;96.80;;;;;;5053271;28;20024;-79
2022/12/18 11:09:02;;;;;;;52.13;22.77;;;-2.40;95.10;;;;;;5035512;28;20403;-79
2022/12/18 11:11:28;;;;;;;80.40;33.80;;;-2.40;93.30;;;;;;5031919;28;20046;-75
2022/12/18 11:14:17;;;;;;;241.45;82.38;;;-2.50;90.50;;;;;;5032537;28;20031;-80
2022/12/18 11:16:50;;;;;;;81.20;33.35;;;-2.60;89.10;;;;;;5033960;28;20026;-77
2022/12/18 11:19:37;;;;;;;254.70;91.47;;;-2.60;89.50;;;;;;5050850;28;20049;-75
2022/12/18 11:22:19;;;;;;;133.82;52.17;;;-2.80;89.80;;;;;;5052439;28;20056;-75
2022/12/18 11:24:54;;;;;;;207.40;79.53;;;-2.70;90.80;;;;;;5052483;28;20116;-76
2022/12/18 11:27:20;;;;;;;61.38;26.00;;;-2.90;91.90;;;;;;5052357;28;20486;-80
2022/12/18 11:29:49;;;;;;;53.42;24.73;;;-2.80;93.50;;;;;;5053481;28;20569;-76
2022/12/18 11:32:14;;;;;;;53.05;24.10;;;-2.60;94.80;;;;;;5053248;28;20075;-75
2022/12/18 11:34:46;;;;;;;61.20;26.00;;;-2.50;94.30;;;;;;5052004;28;20021;-75
2022/12/18 11:37:13;;;;;;;58.47;24.40;;;-2.50;93.60;;;;;;5052068;28;20461;-75
2022/12/18 11:40:11;;;;;;;51.00;23.75;;;-2.30;92.40;;;;;;5053291;28;20017;-75
2022/12/18 11:42:42;;;;;;;50.78;23.20;;;-2.50;89.50;;;;;;5053482;28;20443;-75
2022/12/18 11:45:41;;;;;;;52.40;23.92;;;-2.40;89.50;;;;;;5053247;28;20112;-75
2022/12/18 11:48:25;;;;;;;46.85;21.75;;;-2.50;88.20;;;;;;5048730;28;20425;-75
2022/12/18 11:50:50;;;;;;;;;;;-2.50;88.10;;;;;;5052044;28;20037;-76
2022/12/18 11:53:17;;;;;;;72.68;29.05;;;-2.40;88.70;;;;;;5051902;28;19950;-76
2022/12/18 11:56:04;;;;;;;219.68;81.07;;;-2.60;88.00;;;;;;5052981;28;20532;-76
2022/12/18 11:58:50;;;;;;;53.75;26.27;;;-2.70;88.70;;;;;;5051764;28;20024;-78
2022/12/18 12:01:16;;;;;;;54.25;23.80;;;-2.80;89.40;;;;;;5053072;28;20019;-75
2022/12/18 12:03:54;;;;;;;125.38;49.85;;;-3.00;91.30;;;;;;5051703;28;20463;-75
2022/12/18 12:06:41;;;;;;;55.45;22.73;;;-3.10;92.60;;;;;;5051779;28;20025;-75
2022/12/18 12:09:30;;;;;;;54.47;24.73;;;-3.20;95.40;;;;;;5051717;28;20028;-75
2022/12/18 12:12:10;;;;;;;54.00;24.23;;;-3.20;96.00;;;;;;5048620;28;20064;-75
2022/12/18 12:15:00;;;;;;;53.53;26.10;;;-3.20;97.20;;;;;;5048192;28;20037;-75
2022/12/18 12:17:34;;;;;;;59.72;28.45;;;-3.10;98.10;;;;;;5038202;28;20021;-75
2022/12/18 12:20:05;;;;;;;57.38;28.65;;;-3.20;98.20;;;;;;5048272;28;20069;-74
2022/12/18 12:22:54;;;;;;;54.22;27.13;;;-3.30;98.80;;;;;;5050584;28;20548;-75
2022/12/18 12:25:44;;;;;;;53.17;26.95;;;-3.30;99.70;;;;;;5042820;28;20029;-80
2022/12/18 12:28:13;;;;;;;64.25;27.38;;;-3.20;99.90;;;;;;5047488;28;20033;-77
2022/12/18 12:30:45;;;;;;;79.55;34.17;;;-3.30;99.90;;;;;;5031403;28;20037;-77
2022/12/18 12:33:37;;;;;;;65.00;31.35;;;-3.20;99.90;;;;;;5031842;28;20048;-76
2022/12/18 12:36:20;;;;;;;75.93;33.22;;;-3.20;99.90;;;;;;5030769;28;20476;-79
2022/12/18 12:38:54;;;;;;;74.38;35.40;;;-3.20;99.90;;;;;;5031686;28;20021;-80
2022/12/18 12:44:16;;;;;;;66.18;26.00;;;-3.20;99.90;;;;;;5032837;28;20028;-76
2022/12/18 12:46:43;;;;;;;53.50;26.10;;;-3.30;99.90;;;;;;5032823;28;20109;-76
2022/12/18 12:49:16;;;;;;;57.08;25.02;;;-3.40;99.90;;;;;;5032735;28;20025;-78
2022/12/18 12:51:47;;;;;;;206.30;77.45;;;-3.50;99.90;;;;;;5045025;28;20406;-79
2022/12/18 12:54:25;;;;;;;83.60;38.90;;;-3.50;99.90;;;;;;5044888;28;20029;-79